»·PEaware :: N978AP KSBA-KBUR

N978AP :: KSBA-KBUR

FLIGHT INFORMATION

Flight Status: Arrived
Operator: Privately registered:
United States
More flights under this callsign
Pilot: Jake W. (27785)
Aircraft: CESSNA 172 SKYHAWK
(C172)
More flights by this aircraft type
Origin: KSBA Santa Barbara Mun
United States
Destination: KBUR Bob Hope-Burbank
United States
More flights between these airports :: More routes between these airports
Route:
File this flight plan on PilotEdge
Remarks: CAT-8 Exam
Altitude:
(Current/Filed)
7,500ft
Speed:
(Current/Filed)
120kts
Departed: 13-Feb-20 09:26 PM
Arrived: 13-Feb-20 10:04 PM
Distance/Time
Traveled:
75nm/0:38
Distance/Time
To Go:
Arrived

Flight Plot

Page will automatically refresh every two minutes.


Map Options




Map Legend


Flown Route
Filed Route
Departure Airport
Arrival Airport
Navaid (VOR, NDB)
Fix

Horizontal Profiles

Position Reports

Time Latitude Longitude Heading Altitude Ground
Speed
13-Feb-20 21:10 34.429657 -119.843351 247 16ft 0kts
13-Feb-20 21:11 34.429657 -119.843351 247 16ft 0kts
13-Feb-20 21:12 34.429657 -119.843351 247 16ft 0kts
13-Feb-20 21:14 34.429657 -119.843351 247 16ft 0kts
13-Feb-20 21:15 34.429656 -119.843351 247 16ft 0kts
13-Feb-20 21:16 34.429656 -119.843351 247 16ft 0kts
13-Feb-20 21:17 34.429656 -119.843351 247 16ft 0kts
13-Feb-20 21:19 34.429657 -119.843351 247 16ft 0kts
13-Feb-20 21:20 34.429651 -119.843368 246 16ft 2kts
13-Feb-20 21:21 34.429442 -119.843421 141 16ft 0kts
13-Feb-20 21:22 34.429816 -119.841994 63 16ft 9kts
13-Feb-20 21:23 34.429888 -119.841820 62 16ft 0kts
13-Feb-20 21:24 34.429888 -119.841820 62 16ft 0kts
13-Feb-20 21:25 34.429888 -119.841820 62 16ft 0kts
13-Feb-20 21:26 34.425121 -119.839826 166 26ft 83kts
13-Feb-20 21:27 34.399228 -119.832177 166 869ft 108kts
13-Feb-20 21:28 34.379347 -119.808160 100 1494ft 122kts
13-Feb-20 21:29 34.373995 -119.768624 98 2191ft 117kts
13-Feb-20 21:30 34.369235 -119.729963 99 2888ft 115kts
13-Feb-20 21:31 34.364665 -119.692004 99 3586ft 112kts
13-Feb-20 21:32 34.360254 -119.655162 98 4282ft 109kts
13-Feb-20 21:33 34.355984 -119.619507 98 4977ft 105kts
13-Feb-20 21:34 34.351625 -119.583255 98 5266ft 129kts
13-Feb-20 21:35 34.346033 -119.536814 98 4683ft 144kts
13-Feb-20 21:36 34.340169 -119.488231 98 4082ft 147kts
13-Feb-20 21:37 34.334330 -119.439791 98 3510ft 139kts
13-Feb-20 21:38 34.329118 -119.396754 99 3489ft 122kts
13-Feb-20 21:39 34.324193 -119.356270 99 3490ft 121kts
13-Feb-20 21:39 34.320093 -119.322672 99 3490ft 120kts
13-Feb-20 21:40 34.315142 -119.282316 99 3490ft 120kts
13-Feb-20 21:42 34.309391 -119.235393 99 3490ft 120kts
13-Feb-20 21:42 34.305256 -119.201697 99 3490ft 121kts
13-Feb-20 21:43 34.300264 -119.161221 99 3490ft 121kts
13-Feb-20 21:44 34.295273 -119.120875 99 3490ft 121kts
13-Feb-20 21:45 34.290268 -119.080512 99 3490ft 120kts
13-Feb-20 21:46 34.285253 -119.040183 99 3490ft 121kts
13-Feb-20 21:47 34.280236 -118.999960 99 3494ft 120kts
13-Feb-20 21:48 34.275201 -118.959684 99 3507ft 120kts
13-Feb-20 21:49 34.270624 -118.919284 98 3513ft 121kts
13-Feb-20 21:50 34.265840 -118.878789 99 3517ft 121kts
13-Feb-20 21:51 34.260822 -118.838642 99 3522ft 121kts
13-Feb-20 21:52 34.255732 -118.798176 99 3526ft 121kts
13-Feb-20 21:53 34.250637 -118.757784 99 3527ft 121kts
13-Feb-20 21:54 34.245494 -118.717113 99 3527ft 122kts
13-Feb-20 21:55 34.240296 -118.676156 99 3528ft 122kts
13-Feb-20 21:56 34.234797 -118.632964 99 3161ft 139kts
13-Feb-20 21:57 34.229089 -118.588127 99 3023ft 128kts
13-Feb-20 21:58 34.221179 -118.547163 114 3025ft 123kts
13-Feb-20 21:59 34.207324 -118.509003 114 3022ft 123kts
13-Feb-20 22:00 34.198577 -118.468056 90 2704ft 139kts
13-Feb-20 22:01 34.198264 -118.421379 90 1686ft 128kts
13-Feb-20 22:02 34.198068 -118.384912 90 1184ft 80kts
13-Feb-20 22:03 34.197828 -118.360753 91 779ft 37kts
13-Feb-20 22:04 34.199559 -118.358486 294 779ft 14kts

Navigation Log

Ident Type
Flight plan parsing failed, navigation log unavailable